sensor_id;sensor_type;location;lat;lon;timestamp;temperature;humidity
14188;DHT22;7175;51.978;5.330;2023-02-15T00:02:01;3.60;99.90
14188;DHT22;7175;51.978;5.330;2023-02-15T00:04:29;3.70;99.90
14188;DHT22;7175;51.978;5.330;2023-02-15T00:07:14;3.70;99.90
14188;DHT22;7175;51.978;5.330;2023-02-15T00:09:44;3.70;99.90
14188;DHT22;7175;51.978;5.330;2023-02-15T00:12:12;3.80;99.90
14188;DHT22;7175;51.978;5.330;2023-02-15T00:14:41;3.90;99.90
14188;DHT22;7175;51.978;5.330;2023-02-15T00:17:09;4.10;99.90
14188;DHT22;7175;51.978;5.330;2023-02-15T00:19:37;4.00;99.90
14188;DHT22;7175;51.978;5.330;2023-02-15T00:22:07;4.10;99.90
14188;DHT22;7175;51.978;5.330;2023-02-15T00:24:36;4.20;99.90
14188;DHT22;7175;51.978;5.330;2023-02-15T00:27:05;4.20;99.90
14188;DHT22;7175;51.978;5.330;2023-02-15T00:29:33;4.20;99.90
14188;DHT22;7175;51.978;5.330;2023-02-15T00:32:02;4.20;99.90
14188;DHT22;7175;51.978;5.330;2023-02-15T00:34:30;4.20;99.90
14188;DHT22;7175;51.978;5.330;2023-02-15T00:36:58;4.10;99.90
14188;DHT22;7175;51.978;5.330;2023-02-15T00:39:26;4.00;99.90
14188;DHT22;7175;51.978;5.330;2023-02-15T00:41:57;3.90;99.90
14188;DHT22;7175;51.978;5.330;2023-02-15T00:44:25;4.00;99.90
14188;DHT22;7175;51.978;5.330;2023-02-15T00:46:53;3.90;99.90
14188;DHT22;7175;51.978;5.330;2023-02-15T00:49:21;3.90;99.90
14188;DHT22;7175;51.978;5.330;2023-02-15T00:51:49;4.00;99.90
14188;DHT22;7175;51.978;5.330;2023-02-15T00:54:17;4.00;99.90
14188;DHT22;7175;51.978;5.330;2023-02-15T00:56:46;4.00;99.90
14188;DHT22;7175;51.978;5.330;2023-02-15T00:59:15;4.00;99.90
14188;DHT22;7175;51.978;5.330;2023-02-15T01:01:43;3.90;99.90
14188;DHT22;7175;51.978;5.330;2023-02-15T01:04:11;3.80;99.90
14188;DHT22;7175;51.978;5.330;2023-02-15T01:06:39;3.80;99.90
14188;DHT22;7175;51.978;5.330;2023-02-15T01:09:07;3.90;99.90
14188;DHT22;7175;51.978;5.330;2023-02-15T01:11:35;3.80;99.90
14188;DHT22;7175;51.978;5.330;2023-02-15T01:14:03;3.70;99.90
14188;DHT22;7175;51.978;5.330;2023-02-15T01:16:33;3.70;99.90
14188;DHT22;7175;51.978;5.330;2023-02-15T01:19:01;3.80;99.90
14188;DHT22;7175;51.978;5.330;2023-02-15T01:21:30;3.80;99.90
14188;DHT22;7175;51.978;5.330;2023-02-15T01:24:01;3.70;99.90
14188;DHT22;7175;51.978;5.330;2023-02-15T01:26:29;3.70;99.90
14188;DHT22;7175;51.978;5.330;2023-02-15T01:28:57;3.60;99.90
14188;DHT22;7175;51.978;5.330;2023-02-15T01:31:25;3.50;99.90
14188;DHT22;7175;51.978;5.330;2023-02-15T01:33:55;3.40;99.90
14188;DHT22;7175;51.978;5.330;2023-02-15T01:36:23;3.40;99.90
14188;DHT22;7175;51.978;5.330;2023-02-15T01:38:51;3.30;99.90
14188;DHT22;7175;51.978;5.330;2023-02-15T01:41:19;3.40;99.90
14188;DHT22;7175;51.978;5.330;2023-02-15T01:43:55;3.40;99.90
14188;DHT22;7175;51.978;5.330;2023-02-15T01:46:27;3.30;99.90
14188;DHT22;7175;51.978;5.330;2023-02-15T01:49:02;3.30;99.90
14188;DHT22;7175;51.978;5.330;2023-02-15T01:51:33;3.20;99.90
14188;DHT22;7175;51.978;5.330;2023-02-15T01:54:07;3.30;99.90
14188;DHT22;7175;51.978;5.330;2023-02-15T01:56:38;3.20;99.90
14188;DHT22;7175;51.978;5.330;2023-02-15T01:59:11;3.20;99.90
14188;DHT22;7175;51.978;5.330;2023-02-15T02:01:41;3.30;99.90
14188;DHT22;7175;51.978;5.330;2023-02-15T02:04:15;3.20;99.90
14188;DHT22;7175;51.978;5.330;2023-02-15T02:06:46;3.20;99.90
14188;DHT22;7175;51.978;5.330;2023-02-15T02:09:14;3.20;99.90
14188;DHT22;7175;51.978;5.330;2023-02-15T02:11:45;3.30;99.90
14188;DHT22;7175;51.978;5.330;2023-02-15T02:14:14;3.30;99.90
14188;DHT22;7175;51.978;5.330;2023-02-15T02:16:49;3.30;99.90
14188;DHT22;7175;51.978;5.330;2023-02-15T02:19:39;3.30;99.90
14188;DHT22;7175;51.978;5.330;2023-02-15T02:22:39;3.20;99.90
14188;DHT22;7175;51.978;5.330;2023-02-15T02:25:48;3.20;99.90
14188;DHT22;7175;51.978;5.330;2023-02-15T02:28:41;3.30;99.90
14188;DHT22;7175;51.978;5.330;2023-02-15T02:31:29;3.20;99.90
14188;DHT22;7175;51.978;5.330;2023-02-15T02:34:05;3.20;99.90
14188;DHT22;7175;51.978;5.330;2023-02-15T02:36:40;3.20;99.90
14188;DHT22;7175;51.978;5.330;2023-02-15T02:39:20;3.20;99.90
14188;DHT22;7175;51.978;5.330;2023-02-15T02:41:55;3.10;99.90
14188;DHT22;7175;51.978;5.330;2023-02-15T02:44:26;3.10;99.90
14188;DHT22;7175;51.978;5.330;2023-02-15T02:47:00;3.20;99.90
14188;DHT22;7175;51.978;5.330;2023-02-15T02:49:33;3.10;99.90
14188;DHT22;7175;51.978;5.330;2023-02-15T02:52:03;3.10;99.90
14188;DHT22;7175;51.978;5.330;2023-02-15T02:54:33;3.10;99.90
14188;DHT22;7175;51.978;5.330;2023-02-15T02:57:04;3.10;99.90
14188;DHT22;7175;51.978;5.330;2023-02-15T02:59:37;3.10;99.90
14188;DHT22;7175;51.978;5.330;2023-02-15T03:02:11;3.10;99.90
14188;DHT22;7175;51.978;5.330;2023-02-15T03:04:46;3.00;99.90
14188;DHT22;7175;51.978;5.330;2023-02-15T03:07:18;3.10;99.90
14188;DHT22;7175;51.978;5.330;2023-02-15T03:09:50;3.10;99.90
14188;DHT22;7175;51.978;5.330;2023-02-15T03:12:21;3.10;99.90
14188;DHT22;7175;51.978;5.330;2023-02-15T03:14:51;3.10;99.90
14188;DHT22;7175;51.978;5.330;2023-02-15T03:17:22;3.10;99.90
14188;DHT22;7175;51.978;5.330;2023-02-15T03:19:54;3.00;99.90
14188;DHT22;7175;51.978;5.330;2023-02-15T03:22:28;3.00;99.90
14188;DHT22;7175;51.978;5.330;2023-02-15T03:25:01;3.00;99.90
14188;DHT22;7175;51.978;5.330;2023-02-15T03:27:33;3.10;99.90
14188;DHT22;7175;51.978;5.330;2023-02-15T03:30:05;3.00;99.90
14188;DHT22;7175;51.978;5.330;2023-02-15T03:32:34;3.00;99.90
14188;DHT22;7175;51.978;5.330;2023-02-15T03:35:06;3.00;99.90
14188;DHT22;7175;51.978;5.330;2023-02-15T03:37:39;3.00;99.90
14188;DHT22;7175;51.978;5.330;2023-02-15T03:40:12;2.90;99.90
14188;DHT22;7175;51.978;5.330;2023-02-15T03:43:08;2.90;99.90
14188;DHT22;7175;51.978;5.330;2023-02-15T03:45:40;2.90;99.90
14188;DHT22;7175;51.978;5.330;2023-02-15T03:48:24;2.90;99.90
14188;DHT22;7175;51.978;5.330;2023-02-15T03:50:57;3.00;99.90
14188;DHT22;7175;51.978;5.330;2023-02-15T03:53:46;2.90;99.90
14188;DHT22;7175;51.978;5.330;2023-02-15T03:56:15;2.90;99.90
14188;DHT22;7175;51.978;5.330;2023-02-15T03:58:43;2.90;99.90
14188;DHT22;7175;51.978;5.330;2023-02-15T04:01:34;2.90;99.90
14188;DHT22;7175;51.978;5.330;2023-02-15T04:04:21;2.80;99.90
14188;DHT22;7175;51.978;5.330;2023-02-15T04:06:52;2.80;99.90
14188;DHT22;7175;51.978;5.330;2023-02-15T04:09:21;2.80;99.90
14188;DHT22;7175;51.978;5.330;2023-02-15T04:12:06;2.80;99.90
14188;DHT22;7175;51.978;5.330;2023-02-15T04:14:34;2.70;99.90
14188;DHT22;7175;51.978;5.330;2023-02-15T04:17:20;2.70;99.90
14188;DHT22;7175;51.978;5.330;2023-02-15T04:19:48;2.70;99.90
14188;DHT22;7175;51.978;5.330;2023-02-15T04:22:35;2.60;99.90
14188;DHT22;7175;51.978;5.330;2023-02-15T04:25:21;2.60;99.90
14188;DHT22;7175;51.978;5.330;2023-02-15T04:27:50;2.60;99.90
14188;DHT22;7175;51.978;5.330;2023-02-15T04:30:21;2.50;99.90
14188;DHT22;7175;51.978;5.330;2023-02-15T04:32:50;2.50;99.90
14188;DHT22;7175;51.978;5.330;2023-02-15T04:35:18;2.50;99.90
14188;DHT22;7175;51.978;5.330;2023-02-15T04:37:48;2.50;99.90
14188;DHT22;7175;51.978;5.330;2023-02-15T04:40:17;2.40;99.90
14188;DHT22;7175;51.978;5.330;2023-02-15T04:42:47;2.40;99.90
14188;DHT22;7175;51.978;5.330;2023-02-15T04:45:16;2.40;99.90
14188;DHT22;7175;51.978;5.330;2023-02-15T04:47:44;2.40;99.90
14188;DHT22;7175;51.978;5.330;2023-02-15T04:50:13;2.30;99.90
14188;DHT22;7175;51.978;5.330;2023-02-15T04:52:41;2.40;99.90
14188;DHT22;7175;51.978;5.330;2023-02-15T04:55:10;2.30;99.90
14188;DHT22;7175;51.978;5.330;2023-02-15T04:57:38;2.30;99.90
14188;DHT22;7175;51.978;5.330;2023-02-15T05:00:07;2.30;99.90
14188;DHT22;7175;51.978;5.330;2023-02-15T05:02:36;2.30;99.90
14188;DHT22;7175;51.978;5.330;2023-02-15T05:05:05;2.20;99.90
14188;DHT22;7175;51.978;5.330;2023-02-15T05:07:33;2.20;99.90
14188;DHT22;7175;51.978;5.330;2023-02-15T05:10:02;2.20;99.90
14188;DHT22;7175;51.978;5.330;2023-02-15T05:12:31;2.20;99.90
14188;DHT22;7175;51.978;5.330;2023-02-15T05:14:59;2.10;99.90
14188;DHT22;7175;51.978;5.330;2023-02-15T05:17:27;2.10;99.90
14188;DHT22;7175;51.978;5.330;2023-02-15T05:19:55;2.10;99.90
14188;DHT22;7175;51.978;5.330;2023-02-15T05:22:23;2.10;99.90
14188;DHT22;7175;51.978;5.330;2023-02-15T05:24:52;2.10;99.90
14188;DHT22;7175;51.978;5.330;2023-02-15T05:27:38;2.00;99.90
14188;DHT22;7175;51.978;5.330;2023-02-15T05:30:24;2.00;99.90
14188;DHT22;7175;51.978;5.330;2023-02-15T05:32:52;2.00;99.90
14188;DHT22;7175;51.978;5.330;2023-02-15T05:35:20;2.00;99.90
14188;DHT22;7175;51.978;5.330;2023-02-15T05:37:49;2.00;99.90
14188;DHT22;7175;51.978;5.330;2023-02-15T05:40:17;2.00;99.90
14188;DHT22;7175;51.978;5.330;2023-02-15T05:42:46;2.00;99.90
14188;DHT22;7175;51.978;5.330;2023-02-15T05:45:14;1.90;99.90
14188;DHT22;7175;51.978;5.330;2023-02-15T05:47:43;1.90;99.90
14188;DHT22;7175;51.978;5.330;2023-02-15T05:50:11;1.90;99.90
14188;DHT22;7175;51.978;5.330;2023-02-15T05:52:39;1.90;99.90
14188;DHT22;7175;51.978;5.330;2023-02-15T05:55:08;1.90;99.90
14188;DHT22;7175;51.978;5.330;2023-02-15T05:57:36;1.90;99.90
14188;DHT22;7175;51.978;5.330;2023-02-15T06:00:07;1.90;99.90
14188;DHT22;7175;51.978;5.330;2023-02-15T06:02:37;1.90;99.90
14188;DHT22;7175;51.978;5.330;2023-02-15T06:05:06;1.90;99.90
14188;DHT22;7175;51.978;5.330;2023-02-15T06:07:34;1.80;99.90
14188;DHT22;7175;51.978;5.330;2023-02-15T06:10:03;1.80;99.90
14188;DHT22;7175;51.978;5.330;2023-02-15T06:12:31;1.80;99.90
14188;DHT22;7175;51.978;5.330;2023-02-15T06:14:59;1.80;99.90
14188;DHT22;7175;51.978;5.330;2023-02-15T06:17:28;1.80;99.90
14188;DHT22;7175;51.978;5.330;2023-02-15T06:19:56;1.70;99.90
14188;DHT22;7175;51.978;5.330;2023-02-15T06:22:25;1.70;99.90
14188;DHT22;7175;51.978;5.330;2023-02-15T06:24:53;1.70;99.90
14188;DHT22;7175;51.978;5.330;2023-02-15T06:27:21;1.70;99.90
14188;DHT22;7175;51.978;5.330;2023-02-15T06:29:49;1.60;99.90
14188;DHT22;7175;51.978;5.330;2023-02-15T06:32:17;1.70;99.90
14188;DHT22;7175;51.978;5.330;2023-02-15T06:34:46;1.60;99.90
14188;DHT22;7175;51.978;5.330;2023-02-15T06:37:14;1.60;99.90
14188;DHT22;7175;51.978;5.330;2023-02-15T06:39:43;1.60;99.90
14188;DHT22;7175;51.978;5.330;2023-02-15T06:42:11;1.60;99.90
14188;DHT22;7175;51.978;5.330;2023-02-15T06:44:39;1.60;99.90
14188;DHT22;7175;51.978;5.330;2023-02-15T06:47:07;1.50;99.90
14188;DHT22;7175;51.978;5.330;2023-02-15T06:49:35;1.60;99.90
14188;DHT22;7175;51.978;5.330;2023-02-15T06:52:05;1.60;99.90
14188;DHT22;7175;51.978;5.330;2023-02-15T06:54:33;1.50;99.90
14188;DHT22;7175;51.978;5.330;2023-02-15T06:57:01;1.50;99.90
14188;DHT22;7175;51.978;5.330;2023-02-15T06:59:30;1.50;99.90
14188;DHT22;7175;51.978;5.330;2023-02-15T07:01:58;1.50;99.90
14188;DHT22;7175;51.978;5.330;2023-02-15T07:04:26;1.50;99.90
14188;DHT22;7175;51.978;5.330;2023-02-15T07:06:55;1.60;99.90
14188;DHT22;7175;51.978;5.330;2023-02-15T07:09:25;1.60;99.90
14188;DHT22;7175;51.978;5.330;2023-02-15T07:11:53;1.60;99.90
14188;DHT22;7175;51.978;5.330;2023-02-15T07:14:39;1.60;99.90
14188;DHT22;7175;51.978;5.330;2023-02-15T07:17:07;1.60;99.90
14188;DHT22;7175;51.978;5.330;2023-02-15T07:19:55;1.60;99.90
14188;DHT22;7175;51.978;5.330;2023-02-15T07:22:23;1.60;99.90
14188;DHT22;7175;51.978;5.330;2023-02-15T07:24:53;1.60;99.90
14188;DHT22;7175;51.978;5.330;2023-02-15T07:27:21;1.60;99.90
14188;DHT22;7175;51.978;5.330;2023-02-15T07:29:49;1.70;99.90
14188;DHT22;7175;51.978;5.330;2023-02-15T07:32:17;1.70;99.90
14188;DHT22;7175;51.978;5.330;2023-02-15T07:34:46;1.70;99.90
14188;DHT22;7175;51.978;5.330;2023-02-15T07:37:14;1.80;99.90
14188;DHT22;7175;51.978;5.330;2023-02-15T07:39:42;1.80;99.90
14188;DHT22;7175;51.978;5.330;2023-02-15T07:42:12;1.90;99.90
14188;DHT22;7175;51.978;5.330;2023-02-15T07:44:40;1.90;99.90
14188;DHT22;7175;51.978;5.330;2023-02-15T07:47:08;2.00;99.90
14188;DHT22;7175;51.978;5.330;2023-02-15T07:49:36;2.10;99.90
14188;DHT22;7175;51.978;5.330;2023-02-15T07:52:04;2.10;99.90
14188;DHT22;7175;51.978;5.330;2023-02-15T07:54:33;2.20;99.90
14188;DHT22;7175;51.978;5.330;2023-02-15T07:57:01;2.20;99.90
14188;DHT22;7175;51.978;5.330;2023-02-15T07:59:31;2.30;99.90
14188;DHT22;7175;51.978;5.330;2023-02-15T08:01:59;2.30;99.90
14188;DHT22;7175;51.978;5.330;2023-02-15T08:04:27;2.40;99.90
14188;DHT22;7175;51.978;5.330;2023-02-15T08:06:55;2.50;99.90
14188;DHT22;7175;51.978;5.330;2023-02-15T08:09:23;2.50;99.90
14188;DHT22;7175;51.978;5.330;2023-02-15T08:11:51;2.60;99.90
14188;DHT22;7175;51.978;5.330;2023-02-15T08:14:20;2.60;99.90
14188;DHT22;7175;51.978;5.330;2023-02-15T08:16:51;2.70;99.90
14188;DHT22;7175;51.978;5.330;2023-02-15T08:19:21;2.80;99.90
14188;DHT22;7175;51.978;5.330;2023-02-15T08:21:51;2.90;99.90
14188;DHT22;7175;51.978;5.330;2023-02-15T08:24:22;2.90;99.90
14188;DHT22;7175;51.978;5.330;2023-02-15T08:26:52;3.10;99.90
14188;DHT22;7175;51.978;5.330;2023-02-15T08:29:21;3.30;99.90
14188;DHT22;7175;51.978;5.330;2023-02-15T08:31:53;3.50;99.90
14188;DHT22;7175;51.978;5.330;2023-02-15T08:34:21;3.60;99.90
14188;DHT22;7175;51.978;5.330;2023-02-15T08:36:50;3.70;99.90
14188;DHT22;7175;51.978;5.330;2023-02-15T08:39:18;3.80;99.90
14188;DHT22;7175;51.978;5.330;2023-02-15T08:41:47;3.80;99.90
14188;DHT22;7175;51.978;5.330;2023-02-15T08:44:17;3.90;99.90
14188;DHT22;7175;51.978;5.330;2023-02-15T08:46:46;4.00;99.90
14188;DHT22;7175;51.978;5.330;2023-02-15T08:49:17;4.10;99.90
14188;DHT22;7175;51.978;5.330;2023-02-15T08:51:47;4.10;99.90
14188;DHT22;7175;51.978;5.330;2023-02-15T08:54:19;4.20;99.90
14188;DHT22;7175;51.978;5.330;2023-02-15T08:56:47;4.30;99.90
14188;DHT22;7175;51.978;5.330;2023-02-15T08:59:17;4.40;99.90
14188;DHT22;7175;51.978;5.330;2023-02-15T09:01:47;4.50;99.90
14188;DHT22;7175;51.978;5.330;2023-02-15T09:04:17;4.50;99.90
14188;DHT22;7175;51.978;5.330;2023-02-15T09:06:47;4.60;99.90
14188;DHT22;7175;51.978;5.330;2023-02-15T09:09:16;4.70;99.90
14188;DHT22;7175;51.978;5.330;2023-02-15T09:11:46;4.60;99.90
14188;DHT22;7175;51.978;5.330;2023-02-15T09:14:16;4.60;99.90
14188;DHT22;7175;51.978;5.330;2023-02-15T09:16:46;4.80;99.90
14188;DHT22;7175;51.978;5.330;2023-02-15T09:19:20;4.90;99.90
14188;DHT22;7175;51.978;5.330;2023-02-15T09:21:48;5.00;99.90
14188;DHT22;7175;51.978;5.330;2023-02-15T09:24:17;5.00;99.90
14188;DHT22;7175;51.978;5.330;2023-02-15T09:26:46;5.10;99.90
14188;DHT22;7175;51.978;5.330;2023-02-15T09:29:16;5.20;99.90
14188;DHT22;7175;51.978;5.330;2023-02-15T09:31:45;5.30;99.90
14188;DHT22;7175;51.978;5.330;2023-02-15T09:34:18;5.30;99.90
14188;DHT22;7175;51.978;5.330;2023-02-15T09:36:47;5.40;99.90
14188;DHT22;7175;51.978;5.330;2023-02-15T09:39:16;5.50;99.90
14188;DHT22;7175;51.978;5.330;2023-02-15T09:42:10;5.70;99.90
14188;DHT22;7175;51.978;5.330;2023-02-15T09:45:07;5.90;99.90
14188;DHT22;7175;51.978;5.330;2023-02-15T09:47:54;6.10;99.90
14188;DHT22;7175;51.978;5.330;2023-02-15T09:50:35;6.10;99.90
14188;DHT22;7175;51.978;5.330;2023-02-15T09:53:25;6.10;99.90
14188;DHT22;7175;51.978;5.330;2023-02-15T09:56:01;6.10;99.90
14188;DHT22;7175;51.978;5.330;2023-02-15T09:58:37;6.20;99.90
14188;DHT22;7175;51.978;5.330;2023-02-15T10:01:14;6.40;99.90
14188;DHT22;7175;51.978;5.330;2023-02-15T10:03:58;6.50;99.90
14188;DHT22;7175;51.978;5.330;2023-02-15T10:06:36;6.60;99.90
14188;DHT22;7175;51.978;5.330;2023-02-15T10:09:32;6.70;99.90
14188;DHT22;7175;51.978;5.330;2023-02-15T10:12:22;6.80;99.90
14188;DHT22;7175;51.978;5.330;2023-02-15T10:18:11;7.10;99.90
14188;DHT22;7175;51.978;5.330;2023-02-15T10:20:49;7.30;99.90
14188;DHT22;7175;51.978;5.330;2023-02-15T10:23:33;7.40;99.90
14188;DHT22;7175;51.978;5.330;2023-02-15T10:26:10;7.40;99.90
14188;DHT22;7175;51.978;5.330;2023-02-15T10:28:46;7.50;99.90
14188;DHT22;7175;51.978;5.330;2023-02-15T10:31:26;7.70;99.90
14188;DHT22;7175;51.978;5.330;2023-02-15T10:34:14;7.70;99.90
14188;DHT22;7175;51.978;5.330;2023-02-15T10:37:05;7.90;99.90
14188;DHT22;7175;51.978;5.330;2023-02-15T10:39:44;8.10;99.90
14188;DHT22;7175;51.978;5.330;2023-02-15T10:42:19;8.20;99.90
14188;DHT22;7175;51.978;5.330;2023-02-15T10:45:00;8.30;99.90
14188;DHT22;7175;51.978;5.330;2023-02-15T10:47:42;8.30;99.90
14188;DHT22;7175;51.978;5.330;2023-02-15T10:50:21;8.30;99.90
14188;DHT22;7175;51.978;5.330;2023-02-15T10:53:18;8.50;99.90
14188;DHT22;7175;51.978;5.330;2023-02-15T10:55:56;8.80;99.90
14188;DHT22;7175;51.978;5.330;2023-02-15T10:58:36;8.90;99.90
14188;DHT22;7175;51.978;5.330;2023-02-15T11:01:13;9.10;99.90
14188;DHT22;7175;51.978;5.330;2023-02-15T11:04:06;9.20;99.90
14188;DHT22;7175;51.978;5.330;2023-02-15T11:06:39;9.20;99.90
14188;DHT22;7175;51.978;5.330;2023-02-15T11:09:10;9.20;99.90
14188;DHT22;7175;51.978;5.330;2023-02-15T11:11:47;9.30;99.90
14188;DHT22;7175;51.978;5.330;2023-02-15T11:14:20;9.50;99.90
14188;DHT22;7175;51.978;5.330;2023-02-15T11:16:54;9.60;99.90
14188;DHT22;7175;51.978;5.330;2023-02-15T11:19:28;9.60;99.90
14188;DHT22;7175;51.978;5.330;2023-02-15T11:22:02;9.60;99.90
14188;DHT22;7175;51.978;5.330;2023-02-15T11:24:33;9.70;99.90
14188;DHT22;7175;51.978;5.330;2023-02-15T11:27:16;9.90;99.90
14188;DHT22;7175;51.978;5.330;2023-02-15T11:29:52;10.00;99.90
14188;DHT22;7175;51.978;5.330;2023-02-15T11:32:24;10.10;99.90
14188;DHT22;7175;51.978;5.330;2023-02-15T11:34:56;10.20;99.90
14188;DHT22;7175;51.978;5.330;2023-02-15T11:37:31;10.40;99.90
14188;DHT22;7175;51.978;5.330;2023-02-15T11:40:02;10.60;99.90
14188;DHT22;7175;51.978;5.330;2023-02-15T11:42:35;10.70;99.90
14188;DHT22;7175;51.978;5.330;2023-02-15T11:45:14;10.70;99.90
14188;DHT22;7175;51.978;5.330;2023-02-15T11:47:45;10.70;99.90
14188;DHT22;7175;51.978;5.330;2023-02-15T11:50:15;10.90;99.90
14188;DHT22;7175;51.978;5.330;2023-02-15T11:52:45;11.00;99.90
14188;DHT22;7175;51.978;5.330;2023-02-15T11:55:16;11.00;99.90
14188;DHT22;7175;51.978;5.330;2023-02-15T11:57:52;11.10;99.90
14188;DHT22;7175;51.978;5.330;2023-02-15T12:00:30;11.00;99.90
14188;DHT22;7175;51.978;5.330;2023-02-15T12:03:13;11.20;99.90
14188;DHT22;7175;51.978;5.330;2023-02-15T12:05:45;11.20;99.90
14188;DHT22;7175;51.978;5.330;2023-02-15T12:08:19;11.40;99.90
14188;DHT22;7175;51.978;5.330;2023-02-15T12:11:00;11.70;99.90
14188;DHT22;7175;51.978;5.330;2023-02-15T12:13:32;11.70;99.90
14188;DHT22;7175;51.978;5.330;2023-02-15T12:16:09;11.70;99.90
14188;DHT22;7175;51.978;5.330;2023-02-15T12:18:41;11.80;99.90
14188;DHT22;7175;51.978;5.330;2023-02-15T12:21:12;11.90;99.90
14188;DHT22;7175;51.978;5.330;2023-02-15T12:23:46;11.90;99.90
14188;DHT22;7175;51.978;5.330;2023-02-15T12:26:15;11.90;99.90
14188;DHT22;7175;51.978;5.330;2023-02-15T12:28:52;12.00;99.90
14188;DHT22;7175;51.978;5.330;2023-02-15T12:31:27;12.00;99.90
14188;DHT22;7175;51.978;5.330;2023-02-15T12:33:59;12.20;99.90
14188;DHT22;7175;51.978;5.330;2023-02-15T12:36:31;12.30;99.90
14188;DHT22;7175;51.978;5.330;2023-02-15T12:39:18;12.30;99.90
14188;DHT22;7175;51.978;5.330;2023-02-15T12:41:58;12.50;99.90
14188;DHT22;7175;51.978;5.330;2023-02-15T12:44:30;12.60;99.90
14188;DHT22;7175;51.978;5.330;2023-02-15T12:47:00;12.60;99.90
14188;DHT22;7175;51.978;5.330;2023-02-15T12:49:31;12.70;99.90
14188;DHT22;7175;51.978;5.330;2023-02-15T12:52:00;12.70;99.90
14188;DHT22;7175;51.978;5.330;2023-02-15T12:54:32;12.60;99.90
14188;DHT22;7175;51.978;5.330;2023-02-15T12:57:23;12.70;99.90
14188;DHT22;7175;51.978;5.330;2023-02-15T12:59:56;12.80;99.90
14188;DHT22;7175;51.978;5.330;2023-02-15T13:02:30;12.80;99.90
14188;DHT22;7175;51.978;5.330;2023-02-15T13:05:14;12.80;99.90
14188;DHT22;7175;51.978;5.330;2023-02-15T13:07:46;12.80;99.90
14188;DHT22;7175;51.978;5.330;2023-02-15T13:10:26;12.70;99.90
14188;DHT22;7175;51.978;5.330;2023-02-15T13:12:55;12.80;99.90
14188;DHT22;7175;51.978;5.330;2023-02-15T13:15:30;12.80;99.90
14188;DHT22;7175;51.978;5.330;2023-02-15T13:17:59;12.90;99.90
14188;DHT22;7175;51.978;5.330;2023-02-15T13:20:28;12.80;99.90
14188;DHT22;7175;51.978;5.330;2023-02-15T13:22:59;12.60;99.90
14188;DHT22;7175;51.978;5.330;2023-02-15T13:25:42;12.60;99.90
14188;DHT22;7175;51.978;5.330;2023-02-15T13:28:16;12.60;99.90
14188;DHT22;7175;51.978;5.330;2023-02-15T13:30:47;12.50;99.90
14188;DHT22;7175;51.978;5.330;2023-02-15T13:33:21;12.60;99.90
14188;DHT22;7175;51.978;5.330;2023-02-15T13:36:00;12.70;99.90
14188;DHT22;7175;51.978;5.330;2023-02-15T13:38:44;12.80;99.90
14188;DHT22;7175;51.978;5.330;2023-02-15T13:41:17;13.00;99.90
14188;DHT22;7175;51.978;5.330;2023-02-15T13:43:53;12.90;99.90
14188;DHT22;7175;51.978;5.330;2023-02-15T13:46:43;12.90;99.90
14188;DHT22;7175;51.978;5.330;2023-02-15T13:49:20;12.80;99.90
14188;DHT22;7175;51.978;5.330;2023-02-15T13:51:55;12.70;99.90
14188;DHT22;7175;51.978;5.330;2023-02-15T13:54:37;12.60;99.90
14188;DHT22;7175;51.978;5.330;2023-02-15T13:57:34;12.70;99.90
14188;DHT22;7175;51.978;5.330;2023-02-15T14:00:15;12.70;99.90
14188;DHT22;7175;51.978;5.330;2023-02-15T14:03:14;12.60;99.90
14188;DHT22;7175;51.978;5.330;2023-02-15T14:06:05;12.60;99.90
14188;DHT22;7175;51.978;5.330;2023-02-15T14:08:51;12.60;99.90
14188;DHT22;7175;51.978;5.330;2023-02-15T14:11:25;12.60;99.90
14188;DHT22;7175;51.978;5.330;2023-02-15T14:16:58;12.50;99.90
14188;DHT22;7175;51.978;5.330;2023-02-15T14:19:40;12.50;99.90
14188;DHT22;7175;51.978;5.330;2023-02-15T14:22:18;12.40;99.90
14188;DHT22;7175;51.978;5.330;2023-02-15T14:24:59;12.40;99.90
14188;DHT22;7175;51.978;5.330;2023-02-15T14:27:41;12.50;99.90
14188;DHT22;7175;51.978;5.330;2023-02-15T14:30:14;12.50;99.90
14188;DHT22;7175;51.978;5.330;2023-02-15T14:32:46;12.50;99.90
14188;DHT22;7175;51.978;5.330;2023-02-15T14:35:18;12.50;99.90
14188;DHT22;7175;51.978;5.330;2023-02-15T14:37:55;12.50;99.90
14188;DHT22;7175;51.978;5.330;2023-02-15T14:40:33;12.50;99.90
14188;DHT22;7175;51.978;5.330;2023-02-15T14:43:27;12.40;99.90
14188;DHT22;7175;51.978;5.330;2023-02-15T14:46:03;12.40;99.90
14188;DHT22;7175;51.978;5.330;2023-02-15T14:48:39;12.40;99.90
14188;DHT22;7175;51.978;5.330;2023-02-15T14:57:34;12.20;99.90
14188;DHT22;7175;51.978;5.330;2023-02-15T15:00:31;12.20;99.90
14188;DHT22;7175;51.978;5.330;2023-02-15T15:03:01;12.10;99.90
14188;DHT22;7175;51.978;5.330;2023-02-15T15:05:33;12.10;99.90
14188;DHT22;7175;51.978;5.330;2023-02-15T15:08:04;12.00;99.90
14188;DHT22;7175;51.978;5.330;2023-02-15T15:10:39;11.90;99.90
14188;DHT22;7175;51.978;5.330;2023-02-15T15:13:51;11.90;99.90
14188;DHT22;7175;51.978;5.330;2023-02-15T15:16:47;11.90;99.90
14188;DHT22;7175;51.978;5.330;2023-02-15T15:22:40;11.80;99.90
14188;DHT22;7175;51.978;5.330;2023-02-15T15:25:12;11.80;99.90
14188;DHT22;7175;51.978;5.330;2023-02-15T15:28:01;11.80;99.90
14188;DHT22;7175;51.978;5.330;2023-02-15T15:30:49;11.80;99.90
14188;DHT22;7175;51.978;5.330;2023-02-15T15:39:45;11.60;99.90
14188;DHT22;7175;51.978;5.330;2023-02-15T15:42:31;11.60;99.90
14188;DHT22;7175;51.978;5.330;2023-02-15T15:50:53;11.40;99.90
14188;DHT22;7175;51.978;5.330;2023-02-15T15:53:26;11.40;99.90
14188;DHT22;7175;51.978;5.330;2023-02-15T15:55:58;11.40;99.90
14188;DHT22;7175;51.978;5.330;2023-02-15T15:58:30;11.30;99.90
14188;DHT22;7175;51.978;5.330;2023-02-15T16:01:03;11.30;99.90
14188;DHT22;7175;51.978;5.330;2023-02-15T16:03:32;11.20;99.90
14188;DHT22;7175;51.978;5.330;2023-02-15T16:06:00;11.20;99.90
14188;DHT22;7175;51.978;5.330;2023-02-15T16:08:30;11.10;99.90
14188;DHT22;7175;51.978;5.330;2023-02-15T16:11:13;11.00;99.90
14188;DHT22;7175;51.978;5.330;2023-02-15T16:13:45;11.00;99.90
14188;DHT22;7175;51.978;5.330;2023-02-15T16:16:20;11.00;99.90
14188;DHT22;7175;51.978;5.330;2023-02-15T16:18:49;10.90;99.90
14188;DHT22;7175;51.978;5.330;2023-02-15T16:21:21;10.90;99.90
14188;DHT22;7175;51.978;5.330;2023-02-15T16:24:07;10.80;99.90
14188;DHT22;7175;51.978;5.330;2023-02-15T16:27:09;10.70;99.90
14188;DHT22;7175;51.978;5.330;2023-02-15T16:29:42;10.70;99.90
14188;DHT22;7175;51.978;5.330;2023-02-15T16:32:17;10.60;99.90
14188;DHT22;7175;51.978;5.330;2023-02-15T16:34:53;10.50;99.90
14188;DHT22;7175;51.978;5.330;2023-02-15T16:37:23;10.50;99.90
14188;DHT22;7175;51.978;5.330;2023-02-15T16:39:54;10.40;99.90
14188;DHT22;7175;51.978;5.330;2023-02-15T16:42:23;10.40;99.90
14188;DHT22;7175;51.978;5.330;2023-02-15T16:44:57;10.30;99.90
14188;DHT22;7175;51.978;5.330;2023-02-15T16:47:29;10.30;99.90
14188;DHT22;7175;51.978;5.330;2023-02-15T16:50:01;10.20;99.90
14188;DHT22;7175;51.978;5.330;2023-02-15T16:52:30;10.10;99.90
14188;DHT22;7175;51.978;5.330;2023-02-15T16:55:00;10.10;99.90
14188;DHT22;7175;51.978;5.330;2023-02-15T16:57:32;10.00;99.90
14188;DHT22;7175;51.978;5.330;2023-02-15T17:00:05;10.00;99.90
14188;DHT22;7175;51.978;5.330;2023-02-15T17:02:34;9.90;99.90
14188;DHT22;7175;51.978;5.330;2023-02-15T17:05:22;9.80;99.90
14188;DHT22;7175;51.978;5.330;2023-02-15T17:08:04;9.80;99.90